Time;durP1;ratioP1;P1;durP2;ratioP2;P2;SDS_P1;SDS_P2;PMS_P1;PMS_P2;Temp;Humidity;BMP_temperature;BMP_pressure;BME280_temperature;BME280_humidity;BME280_pressure;Samples;Min_cycle;Max_cycle;Signal;HPM_P1;HPM_P2
2022/11/25 00:02:15;;;;;;;4.88;2.95;;;0.70;99.90;;;;;;5056359;28;20026;-38
2022/11/25 00:04:41;;;;;;;8.18;4.07;;;0.70;99.90;;;;;;5065012;28;20107;-36
2022/11/25 00:07:06;;;;;;;16.85;6.43;;;0.80;99.90;;;;;;5063017;28;20032;-35
2022/11/25 00:09:32;;;;;;;21.92;10.60;;;0.80;99.90;;;;;;5067591;28;20039;-39
2022/11/25 00:11:57;;;;;;;15.32;9.20;;;0.90;99.90;;;;;;5070459;28;20028;-36
2022/11/25 00:14:23;;;;;;;13.32;5.60;;;1.00;99.90;;;;;;5061718;28;20122;-39
2022/11/25 00:16:48;;;;;;;8.32;5.40;;;1.00;99.90;;;;;;5064259;28;20024;-39
2022/11/25 00:19:14;;;;;;;7.10;3.63;;;1.00;99.90;;;;;;5065324;28;20104;-37
2022/11/25 00:21:40;;;;;;;5.70;3.13;;;1.10;99.90;;;;;;5064562;28;20560;-38
2022/11/25 00:24:06;;;;;;;3.08;2.53;;;1.10;99.90;;;;;;5072105;28;20065;-38
2022/11/25 00:26:34;;;;;;;4.78;3.00;;;0.90;99.90;;;;;;5064971;28;20033;-39
2022/11/25 00:29:03;;;;;;;3.95;3.03;;;0.90;99.90;;;;;;5058051;28;20386;-39
2022/11/25 00:31:31;;;;;;;4.65;2.90;;;0.90;99.90;;;;;;5066349;28;20033;-39
2022/11/25 00:33:57;;;;;;;8.43;3.25;;;0.80;99.90;;;;;;5064182;28;20028;-38
2022/11/25 00:36:29;;;;;;;5.25;3.08;;;0.80;99.90;;;;;;5062529;28;20444;-40
2022/11/25 00:39:00;;;;;;;4.20;3.35;;;0.90;99.90;;;;;;5065678;28;20042;-40
2022/11/25 00:46:59;;;;;;;2.50;2.30;;;0.90;99.90;;;;;;5067658;28;20039;-34
2022/11/25 00:49:24;;;;;;;5.68;3.83;;;0.90;99.90;;;;;;5061829;28;20605;-38
2022/11/25 00:51:50;;;;;;;6.72;3.17;;;0.90;99.90;;;;;;5060475;28;20070;-37
2022/11/25 00:54:16;;;;;;;4.07;2.70;;;0.90;99.90;;;;;;5060635;28;20212;-37
2022/11/25 00:56:41;;;;;;;5.63;3.90;;;0.90;99.90;;;;;;5063183;28;20156;-38
2022/11/25 00:59:07;;;;;;;3.80;3.25;;;0.90;99.90;;;;;;5064211;28;20385;-38
2022/11/25 01:01:33;;;;;;;6.22;2.80;;;0.80;99.90;;;;;;5059931;28;20405;-37
2022/11/25 01:03:59;;;;;;;2.97;2.50;;;0.70;99.90;;;;;;5061605;28;20025;-39
2022/11/25 01:06:25;;;;;;;4.00;2.58;;;0.70;99.90;;;;;;5063882;28;20983;-39
2022/11/25 01:08:51;;;;;;;5.35;2.70;;;0.60;99.90;;;;;;5063360;28;20033;-38
2022/11/25 01:11:19;;;;;;;3.75;2.80;;;0.60;99.90;;;;;;5068731;28;20039;-38
2022/11/25 01:13:45;;;;;;;4.07;3.67;;;0.60;99.90;;;;;;5072132;28;20040;-39
2022/11/25 01:16:12;;;;;;;3.35;2.63;;;0.70;99.90;;;;;;5067474;28;20059;-37
2022/11/25 01:18:39;;;;;;;5.03;2.92;;;0.70;99.90;;;;;;5068943;28;20078;-40
2022/11/25 01:21:26;;;;;;;3.08;2.78;;;0.70;99.90;;;;;;5065966;28;20056;-37
2022/11/25 01:23:52;;;;;;;5.23;3.47;;;0.70;99.90;;;;;;5067009;28;20100;-39
2022/11/25 01:26:21;;;;;;;15.38;7.43;;;0.70;99.90;;;;;;5063217;28;20151;-37
2022/11/25 01:28:47;;;;;;;9.20;6.40;;;0.80;99.90;;;;;;5064694;28;20035;-40
2022/11/25 01:31:17;;;;;;;16.08;5.55;;;0.80;99.90;;;;;;5064372;28;20037;-39
2022/11/25 01:33:44;;;;;;;6.15;3.85;;;0.80;99.90;;;;;;5067027;28;20044;-39
2022/11/25 01:36:12;;;;;;;3.20;2.45;;;0.70;99.90;;;;;;5061447;28;20028;-39
2022/11/25 01:38:38;;;;;;;3.22;2.80;;;0.70;99.90;;;;;;5070669;28;20035;-39
2022/11/25 01:41:06;;;;;;;6.13;2.65;;;0.80;99.90;;;;;;5069141;28;20392;-40
2022/11/25 01:43:32;;;;;;;2.58;2.38;;;0.80;99.90;;;;;;5063840;28;20390;-38
2022/11/25 01:46:11;;;;;;;4.68;2.50;;;0.80;99.90;;;;;;5067632;28;20024;-38
2022/11/25 01:48:52;;;;;;;2.25;2.05;;;0.80;99.90;;;;;;5078035;28;20050;-39
2022/11/25 01:51:26;;;;;;;3.88;2.80;;;0.70;99.90;;;;;;5058951;28;20038;-36
2022/11/25 01:53:55;;;;;;;8.50;2.50;;;0.70;99.90;;;;;;5066437;28;20028;-38
2022/11/25 01:56:21;;;;;;;5.57;2.60;;;0.60;99.90;;;;;;5058364;28;20060;-38
2022/11/25 01:58:48;;;;;;;3.30;2.85;;;0.40;99.90;;;;;;5064488;28;20107;-40
2022/11/25 02:01:16;;;;;;;2.92;2.70;;;0.30;99.90;;;;;;5059471;28;20076;-29
2022/11/25 02:03:45;;;;;;;2.95;2.75;;;0.20;99.90;;;;;;5064883;28;20420;-29
2022/11/25 02:06:27;;;;;;;5.00;2.80;;;0.30;99.90;;;;;;5065350;28;20503;-33
2022/11/25 02:08:56;;;;;;;2.72;2.53;;;0.40;99.90;;;;;;5059961;28;20033;-30
2022/11/25 02:11:24;;;;;;;;;;;0.50;99.90;;;;;;5068634;28;20039;-30
2022/11/25 02:13:50;;;;;;;3.00;2.80;;;0.60;99.90;;;;;;5066237;28;19916;-30
2022/11/25 02:16:16;;;;;;;3.60;2.35;;;0.60;99.90;;;;;;5060995;28;20115;-31
2022/11/25 02:18:42;;;;;;;3.33;3.03;;;0.60;99.90;;;;;;5061421;28;20028;-29
2022/11/25 02:21:08;;;;;;;3.17;2.80;;;0.60;99.90;;;;;;5061354;28;20032;-30
2022/11/25 02:23:53;;;;;;;3.17;2.83;;;0.70;99.90;;;;;;5063800;28;20528;-31
2022/11/25 02:26:19;;;;;;;7.18;2.97;;;0.70;99.90;;;;;;5057941;28;20059;-29
2022/11/25 02:28:45;;;;;;;2.42;2.22;;;0.70;99.90;;;;;;5068063;28;20470;-29
2022/11/25 02:31:11;;;;;;;5.63;3.67;;;0.60;99.90;;;;;;5061260;28;20567;-30
2022/11/25 02:33:37;;;;;;;1.63;1.52;;;0.70;99.90;;;;;;5067539;28;20063;-30
2022/11/25 02:36:06;;;;;;;1.90;1.70;;;0.50;99.90;;;;;;5062228;28;20025;-30
2022/11/25 02:38:39;;;;;;;0.98;0.93;;;0.40;99.90;;;;;;5060953;28;20025;-29
2022/11/25 02:41:33;;;;;;;8.35;3.28;;;0.20;99.90;;;;;;5057854;28;20028;-32
2022/11/25 02:44:00;;;;;;;5.60;2.90;;;0.00;99.90;;;;;;5064332;28;20032;-30
2022/11/25 02:46:27;;;;;;;5.13;2.50;;;0.10;99.90;;;;;;5059121;28;20029;-33
2022/11/25 02:48:55;;;;;;;2.30;2.03;;;0.20;99.90;;;;;;5037676;28;20079;-30
2022/11/25 02:51:23;;;;;;;1.97;1.87;;;0.30;99.90;;;;;;5039300;28;20035;-31
2022/11/25 02:53:49;;;;;;;2.80;1.90;;;0.30;99.90;;;;;;5038340;28;20101;-30
2022/11/25 02:56:17;;;;;;;2.05;1.83;;;0.30;99.90;;;;;;5039126;28;20041;-31
2022/11/25 02:58:42;;;;;;;1.83;1.73;;;0.30;99.90;;;;;;5037287;28;20120;-31
2022/11/25 03:01:08;;;;;;;1.70;1.60;;;0.20;99.90;;;;;;5038912;28;20684;-33
2022/11/25 03:03:34;;;;;;;1.55;1.25;;;0.20;99.90;;;;;;5043685;28;20032;-30
2022/11/25 03:06:01;;;;;;;3.70;2.17;;;0.10;99.90;;;;;;5038911;28;20493;-30
2022/11/25 03:08:26;;;;;;;2.65;2.35;;;0.20;99.90;;;;;;5039284;28;20025;-32
2022/11/25 03:10:52;;;;;;;3.28;2.40;;;0.20;99.90;;;;;;5042886;28;20089;-30
2022/11/25 03:13:17;;;;;;;3.03;2.33;;;0.30;99.90;;;;;;5068118;28;20098;-29
2022/11/25 03:15:43;;;;;;;3.13;2.83;;;0.40;99.90;;;;;;5059833;28;20386;-29
2022/11/25 03:18:09;;;;;;;1.63;1.52;;;0.50;99.90;;;;;;5060913;28;20082;-29
2022/11/25 03:20:35;;;;;;;2.25;2.00;;;0.50;99.90;;;;;;5057874;28;20040;-31
2022/11/25 03:23:01;;;;;;;2.60;2.13;;;0.60;99.90;;;;;;5062622;28;20472;-29
2022/11/25 03:25:27;;;;;;;2.45;1.83;;;0.60;99.90;;;;;;5062302;28;20032;-34
2022/11/25 03:27:52;;;;;;;3.70;1.52;;;0.60;99.90;;;;;;5059754;28;20040;-29
2022/11/25 03:30:21;;;;;;;2.78;2.05;;;0.50;99.90;;;;;;5059300;28;20045;-32
2022/11/25 03:32:47;;;;;;;;;;;0.30;99.90;;;;;;5063170;28;20074;-30
2022/11/25 03:35:14;;;;;;;1.77;1.67;;;0.40;99.90;;;;;;5067290;28;19951;-30
2022/11/25 03:37:39;;;;;;;3.25;1.95;;;0.30;99.90;;;;;;5063793;28;20107;-29
2022/11/25 03:40:06;;;;;;;1.63;1.38;;;0.40;99.90;;;;;;5065806;28;20120;-34
2022/11/25 03:42:32;;;;;;;2.42;2.15;;;0.40;99.90;;;;;;5067708;28;20540;-29
2022/11/25 03:44:57;;;;;;;2.67;1.80;;;0.30;99.90;;;;;;5074418;28;20034;-30
2022/11/25 03:47:24;;;;;;;2.40;2.20;;;0.30;99.90;;;;;;5066866;28;20121;-33
2022/11/25 03:49:49;;;;;;;2.28;1.95;;;0.30;99.90;;;;;;5067740;28;20043;-29
2022/11/25 03:52:15;;;;;;;2.22;1.92;;;0.40;99.90;;;;;;5068295;28;20525;-31
2022/11/25 03:54:41;;;;;;;1.67;1.58;;;0.40;99.90;;;;;;5071564;28;20481;-29
2022/11/25 03:57:06;;;;;;;3.88;1.77;;;0.40;99.90;;;;;;5067698;28;20163;-29
2022/11/25 03:59:32;;;;;;;2.53;2.33;;;0.40;99.90;;;;;;5067023;28;20055;-29
2022/11/25 04:01:58;;;;;;;3.28;1.95;;;0.40;99.90;;;;;;5063230;28;20037;-30
2022/11/25 04:04:23;;;;;;;3.15;1.80;;;0.40;99.90;;;;;;5065086;28;20025;-30
2022/11/25 04:06:49;;;;;;;2.72;1.90;;;0.30;99.90;;;;;;5067671;28;20136;-32
2022/11/25 04:09:15;;;;;;;5.60;2.60;;;0.10;99.90;;;;;;5066289;28;20032;-32
2022/11/25 04:14:25;;;;;;;2.38;2.20;;;0.10;99.90;;;;;;5069318;28;20114;-34
2022/11/25 04:16:50;;;;;;;2.53;2.33;;;0.20;99.90;;;;;;5065382;28;20028;-30
2022/11/25 04:19:16;;;;;;;2.90;1.92;;;0.20;99.90;;;;;;5071512;28;20021;-30
2022/11/25 04:21:42;;;;;;;3.03;2.30;;;0.20;99.90;;;;;;5062317;28;20067;-29
2022/11/25 04:24:07;;;;;;;2.00;1.90;;;0.30;99.90;;;;;;5069126;28;20031;-29
2022/11/25 04:26:33;;;;;;;3.85;2.30;;;0.30;99.90;;;;;;5063703;28;20750;-29
2022/11/25 04:28:59;;;;;;;2.03;1.80;;;0.30;99.90;;;;;;5067724;28;20605;-30
2022/11/25 04:31:24;;;;;;;2.00;1.40;;;0.30;99.90;;;;;;5070524;28;20063;-32
2022/11/25 04:33:50;;;;;;;1.38;1.27;;;0.30;99.90;;;;;;5067353;28;20501;-29
2022/11/25 04:36:16;;;;;;;1.50;1.40;;;0.30;99.90;;;;;;5064095;28;20036;-30
2022/11/25 04:38:41;;;;;;;3.58;1.85;;;0.30;99.90;;;;;;5067090;28;20067;-31
2022/11/25 04:41:07;;;;;;;5.18;1.90;;;0.40;99.90;;;;;;5071688;28;20385;-29
2022/11/25 04:43:33;;;;;;;1.95;1.85;;;0.40;99.90;;;;;;5070012;28;20055;-30
2022/11/25 04:45:58;;;;;;;3.15;2.10;;;0.40;99.90;;;;;;5068284;28;20028;-29
2022/11/25 04:48:24;;;;;;;3.60;1.90;;;0.40;99.90;;;;;;5068209;28;20059;-33
2022/11/25 04:50:50;;;;;;;2.90;1.95;;;0.40;99.90;;;;;;5068945;28;20101;-30
2022/11/25 04:53:15;;;;;;;2.22;2.10;;;0.20;99.90;;;;;;5067051;28;20492;-29
2022/11/25 04:55:41;;;;;;;2.05;1.73;;;0.20;99.90;;;;;;5064278;28;20032;-30
2022/11/25 04:58:09;;;;;;;1.88;1.77;;;0.20;99.90;;;;;;5064893;28;20036;-30
2022/11/25 05:00:35;;;;;;;7.13;4.18;;;0.20;99.90;;;;;;5067062;28;20033;-30
2022/11/25 05:03:00;;;;;;;14.00;5.53;;;0.20;99.90;;;;;;5070515;28;20077;-29
2022/11/25 05:05:26;;;;;;;13.73;7.78;;;0.20;99.90;;;;;;5066543;28;20745;-29
2022/11/25 05:07:51;;;;;;;13.07;5.93;;;0.20;99.90;;;;;;5063523;28;20037;-30
2022/11/25 05:10:17;;;;;;;7.43;4.30;;;0.30;99.90;;;;;;5066374;28;20032;-32
2022/11/25 05:12:42;;;;;;;3.17;1.95;;;0.30;99.90;;;;;;5066423;28;20047;-33
2022/11/25 05:15:08;;;;;;;2.05;1.90;;;0.30;99.90;;;;;;5064968;28;20485;-30
2022/11/25 05:17:34;;;;;;;1.48;1.38;;;0.20;99.90;;;;;;5069226;28;20028;-29
2022/11/25 05:20:00;;;;;;;4.57;2.10;;;0.20;99.90;;;;;;5064777;28;20042;-30
2022/11/25 05:22:28;;;;;;;1.80;1.70;;;0.20;99.90;;;;;;5068608;28;20029;-30
2022/11/25 05:24:55;;;;;;;1.92;1.75;;;0.20;99.90;;;;;;5065323;28;20048;-30
2022/11/25 05:27:21;;;;;;;2.20;2.00;;;0.20;99.90;;;;;;5067581;28;20045;-30
2022/11/25 05:29:47;;;;;;;2.47;2.28;;;0.20;99.90;;;;;;5067835;28;20036;-31
2022/11/25 05:32:13;;;;;;;2.10;2.00;;;0.20;99.90;;;;;;5070334;28;20032;-30
2022/11/25 05:34:40;;;;;;;2.95;2.35;;;0.10;99.90;;;;;;5068269;28;20032;-30
2022/11/25 05:37:06;;;;;;;2.80;2.50;;;0.10;99.90;;;;;;5059172;28;20070;-30
2022/11/25 05:39:32;;;;;;;1.98;1.90;;;0.20;99.90;;;;;;5083746;28;20036;-29
2022/11/25 05:41:57;;;;;;;2.13;1.90;;;0.20;99.90;;;;;;5065758;28;20481;-30
2022/11/25 05:44:23;;;;;;;2.30;2.10;;;0.20;99.90;;;;;;5064656;28;20099;-30
2022/11/25 05:46:49;;;;;;;1.30;1.30;;;0.20;99.90;;;;;;5067541;28;20028;-30
2022/11/25 05:49:16;;;;;;;2.53;2.33;;;0.20;99.90;;;;;;5060201;28;20525;-30
2022/11/25 05:51:41;;;;;;;2.80;2.60;;;0.10;99.90;;;;;;5071442;28;20037;-29
2022/11/25 05:54:07;;;;;;;6.18;2.35;;;0.20;99.90;;;;;;5060459;28;20381;-30
2022/11/25 05:56:33;;;;;;;11.30;5.78;;;0.30;99.90;;;;;;5065976;28;20036;-30
2022/11/25 05:58:59;;;;;;;12.73;4.75;;;0.40;99.90;;;;;;5057450;28;20556;-29
2022/11/25 06:01:25;;;;;;;6.68;3.88;;;0.50;99.90;;;;;;5058579;28;20025;-30
2022/11/25 06:03:51;;;;;;;3.75;3.15;;;0.50;99.90;;;;;;5066074;28;20033;-32
2022/11/25 06:06:17;;;;;;;2.90;2.30;;;0.50;99.90;;;;;;5063466;28;20025;-36
2022/11/25 06:08:43;;;;;;;2.83;2.45;;;0.50;99.90;;;;;;5064049;28;20033;-30
2022/11/25 06:11:11;;;;;;;5.07;2.70;;;0.60;99.90;;;;;;5062546;28;20033;-30
2022/11/25 06:13:38;;;;;;;2.50;2.33;;;0.60;99.90;;;;;;5064226;28;20060;-30
2022/11/25 06:16:22;;;;;;;5.03;3.35;;;0.60;99.90;;;;;;5067096;28;20025;-30
2022/11/25 06:18:48;;;;;;;2.78;2.42;;;0.60;99.90;;;;;;5061290;28;20036;-31
2022/11/25 06:21:14;;;;;;;1.70;1.52;;;0.70;99.90;;;;;;5060701;28;20028;-30
2022/11/25 06:23:40;;;;;;;4.72;3.40;;;0.60;99.90;;;;;;5063452;28;20031;-29
2022/11/25 06:26:16;;;;;;;4.18;2.65;;;0.50;99.90;;;;;;5060716;28;20029;-29
2022/11/25 06:28:42;;;;;;;2.78;2.58;;;0.50;99.90;;;;;;5064348;28;20024;-30
2022/11/25 06:31:10;;;;;;;4.85;2.53;;;0.60;99.90;;;;;;5071014;28;20032;-29
2022/11/25 06:33:36;;;;;;;5.93;2.83;;;0.60;99.90;;;;;;5058745;28;20060;-30
2022/11/25 06:36:04;;;;;;;4.10;2.92;;;0.70;99.90;;;;;;5065752;28;20086;-31
2022/11/25 06:38:30;;;;;;;2.95;2.60;;;0.70;99.90;;;;;;5060851;28;20060;-30
2022/11/25 06:41:00;;;;;;;4.68;3.25;;;0.70;99.90;;;;;;5071000;28;20510;-35
2022/11/25 06:43:25;;;;;;;3.65;3.13;;;0.80;99.90;;;;;;5063087;28;20044;-30
2022/11/25 06:45:51;;;;;;;1.92;1.83;;;0.80;99.90;;;;;;5063854;28;20016;-35
2022/11/25 06:48:17;;;;;;;3.75;2.42;;;0.70;99.90;;;;;;5059591;28;20072;-30
2022/11/25 06:50:42;;;;;;;3.55;2.05;;;0.60;99.90;;;;;;5063578;28;20024;-29
2022/11/25 06:53:08;;;;;;;2.88;2.50;;;0.60;99.90;;;;;;5064555;28;20029;-29
2022/11/25 06:55:33;;;;;;;2.60;2.50;;;0.60;99.90;;;;;;5061662;28;20035;-31
2022/11/25 06:57:59;;;;;;;2.50;2.30;;;0.60;99.90;;;;;;5051553;28;20020;-29
2022/11/25 07:00:25;;;;;;;4.05;2.78;;;0.70;99.90;;;;;;5063904;28;20020;-31
2022/11/25 07:02:50;;;;;;;3.70;2.90;;;0.70;99.90;;;;;;5061323;28;20029;-31
2022/11/25 07:05:16;;;;;;;3.63;3.25;;;0.70;99.90;;;;;;5062267;28;20541;-29
2022/11/25 07:07:41;;;;;;;5.25;3.50;;;0.70;99.90;;;;;;5062500;28;20028;-32
2022/11/25 07:10:07;;;;;;;2.97;2.55;;;0.80;99.90;;;;;;5057723;28;20055;-31
2022/11/25 07:12:33;;;;;;;2.10;1.90;;;0.80;99.90;;;;;;5047021;28;20091;-32
2022/11/25 07:14:58;;;;;;;4.10;2.55;;;0.80;99.90;;;;;;5043731;28;20033;-30
2022/11/25 07:17:24;;;;;;;3.97;2.95;;;0.80;99.90;;;;;;5043302;28;20064;-34
2022/11/25 07:19:49;;;;;;;2.67;2.28;;;0.80;99.90;;;;;;5053009;28;20025;-32
2022/11/25 07:22:15;;;;;;;3.80;2.63;;;0.90;99.90;;;;;;5063176;28;20083;-32
2022/11/25 07:24:41;;;;;;;3.80;2.50;;;0.90;99.90;;;;;;5064360;28;20252;-33
2022/11/25 07:27:07;;;;;;;5.25;2.45;;;0.90;99.90;;;;;;5064630;28;20480;-31
2022/11/25 07:29:34;;;;;;;2.30;2.20;;;1.00;99.90;;;;;;5065562;28;20435;-37
2022/11/25 07:32:00;;;;;;;3.30;2.58;;;0.90;99.90;;;;;;5064495;28;20033;-32
2022/11/25 07:34:25;;;;;;;2.72;2.40;;;1.00;99.90;;;;;;5068146;28;20558;-30
2022/11/25 07:36:51;;;;;;;7.38;2.70;;;1.00;99.90;;;;;;5061837;28;21141;-32
2022/11/25 07:39:20;;;;;;;3.45;2.42;;;1.00;99.90;;;;;;5072860;28;20079;-31
2022/11/25 07:41:49;;;;;;;;;;;1.10;99.90;;;;;;5070310;28;20028;-30
2022/11/25 07:44:15;;;;;;;3.58;2.55;;;1.10;99.90;;;;;;5069223;28;19909;-30
2022/11/25 07:46:43;;;;;;;6.05;2.78;;;1.10;99.90;;;;;;5067698;28;20055;-30
2022/11/25 07:49:11;;;;;;;3.13;2.90;;;1.00;99.90;;;;;;5057821;28;20040;-31
2022/11/25 07:51:42;;;;;;;3.45;2.67;;;1.10;99.90;;;;;;5074502;28;20075;-30
2022/11/25 07:54:10;;;;;;;2.10;1.95;;;1.10;99.90;;;;;;5068146;28;20028;-30
2022/11/25 07:56:38;;;;;;;3.65;2.55;;;1.00;99.90;;;;;;5067348;28;20040;-30
2022/11/25 07:59:05;;;;;;;2.50;2.20;;;1.00;99.90;;;;;;5072213;28;20777;-31
2022/11/25 08:01:31;;;;;;;4.15;2.22;;;1.10;99.90;;;;;;5064393;28;20033;-31
2022/11/25 08:03:56;;;;;;;2.60;2.40;;;1.10;99.90;;;;;;5060029;28;20417;-30
2022/11/25 08:06:25;;;;;;;5.22;3.25;;;1.20;99.90;;;;;;5074295;28;20483;-31
2022/11/25 08:08:54;;;;;;;5.70;3.38;;;1.20;99.90;;;;;;5060202;28;20043;-31
2022/11/25 08:11:28;;;;;;;5.28;4.13;;;1.20;99.90;;;;;;5062000;28;20044;-30
2022/11/25 08:13:54;;;;;;;2.97;2.78;;;1.20;99.90;;;;;;5066064;28;20044;-30
2022/11/25 08:16:22;;;;;;;6.75;3.78;;;1.20;99.90;;;;;;5059526;28;20024;-32
2022/11/25 08:18:48;;;;;;;3.50;3.20;;;1.30;99.90;;;;;;5067897;28;20087;-30
2022/11/25 08:21:15;;;;;;;2.35;2.13;;;1.30;99.90;;;;;;5068448;28;20431;-30
2022/11/25 08:23:42;;;;;;;5.15;2.95;;;1.30;99.90;;;;;;5060924;28;20029;-33
2022/11/25 08:26:11;;;;;;;5.45;2.88;;;1.40;99.90;;;;;;5065095;28;20474;-32
2022/11/25 08:28:37;;;;;;;;;;;1.40;99.90;;;;;;5056404;28;20115;-30
2022/11/25 08:31:05;;;;;;;7.65;2.67;;;1.40;99.90;;;;;;5061553;28;19912;-30
2022/11/25 08:33:32;;;;;;;3.08;1.83;;;1.50;99.90;;;;;;5065415;28;20020;-32
2022/11/25 08:35:57;;;;;;;5.82;2.85;;;1.50;99.90;;;;;;5053956;28;20045;-33
2022/11/25 08:38:24;;;;;;;4.93;4.50;;;1.60;99.90;;;;;;5050322;28;20037;-30
2022/11/25 08:40:49;;;;;;;9.93;3.45;;;1.60;99.90;;;;;;5068592;28;20481;-31
2022/11/25 08:43:16;;;;;;;2.85;2.50;;;1.70;99.90;;;;;;5066320;28;20025;-30
2022/11/25 08:45:41;;;;;;;3.47;2.15;;;1.70;99.90;;;;;;5066962;28;20036;-30
2022/11/25 08:48:07;;;;;;;4.32;2.42;;;1.80;99.90;;;;;;5067892;28;20033;-30
2022/11/25 08:50:33;;;;;;;4.97;2.60;;;1.80;99.90;;;;;;5068344;28;20056;-31
2022/11/25 08:53:00;;;;;;;5.57;3.30;;;1.90;99.90;;;;;;5069665;28;20059;-30
2022/11/25 08:55:26;;;;;;;5.13;3.88;;;2.00;99.90;;;;;;5068777;28;20562;-30
2022/11/25 08:57:53;;;;;;;4.18;3.10;;;2.10;99.90;;;;;;5067646;28;20041;-33
2022/11/25 09:00:19;;;;;;;4.13;3.63;;;2.20;99.90;;;;;;5064125;28;20627;-32
2022/11/25 09:02:45;;;;;;;5.32;3.03;;;2.30;99.90;;;;;;5071778;28;20056;-30
2022/11/25 09:05:13;;;;;;;3.38;2.45;;;2.40;99.90;;;;;;5070092;28;20060;-30
2022/11/25 09:07:39;;;;;;;2.78;2.42;;;2.50;99.90;;;;;;5065418;28;20016;-30
2022/11/25 09:10:07;;;;;;;3.38;3.08;;;2.60;99.90;;;;;;5069161;28;20508;-32
2022/11/25 09:12:33;;;;;;;4.78;2.85;;;2.70;99.90;;;;;;5063040;28;20383;-33
2022/11/25 09:14:58;;;;;;;5.30;2.92;;;2.80;99.90;;;;;;5068377;28;20028;-30
2022/11/25 09:17:24;;;;;;;2.58;2.15;;;2.90;99.90;;;;;;5065709;28;20397;-32
2022/11/25 09:19:49;;;;;;;3.38;2.53;;;2.90;99.90;;;;;;5067916;28;20355;-30
2022/11/25 09:22:15;;;;;;;2.88;2.08;;;3.00;99.90;;;;;;5069173;28;20043;-30
2022/11/25 09:24:42;;;;;;;2.20;2.00;;;3.00;99.90;;;;;;5069816;28;20033;-31
2022/11/25 09:27:08;;;;;;;2.42;2.20;;;3.10;99.90;;;;;;5062663;28;20039;-30
2022/11/25 09:29:33;;;;;;;1.77;1.70;;;3.20;99.90;;;;;;5069552;28;20036;-33
2022/11/25 09:31:59;;;;;;;5.70;2.40;;;3.20;99.90;;;;;;5060870;28;20140;-30
2022/11/25 09:34:24;;;;;;;3.28;2.20;;;3.30;99.90;;;;;;5076363;28;20029;-31
2022/11/25 09:36:50;;;;;;;2.35;2.10;;;3.30;99.90;;;;;;5061983;28;20469;-30
2022/11/25 09:39:16;;;;;;;2.90;1.65;;;3.50;99.90;;;;;;5066352;28;20064;-30
2022/11/25 09:47:48;;;;;;;2.55;1.60;;;3.60;99.90;;;;;;5068515;28;20167;-30
2022/11/25 09:50:14;;;;;;;4.38;2.13;;;3.70;99.90;;;;;;5068561;28;20475;-33
2022/11/25 09:52:47;;;;;;;1.60;1.50;;;3.70;99.90;;;;;;5068943;28;20107;-30
2022/11/25 09:55:20;;;;;;;1.85;1.75;;;3.70;99.90;;;;;;5069318;28;20047;-31
2022/11/25 09:57:58;;;;;;;2.42;1.92;;;3.80;99.90;;;;;;5066617;28;20032;-30
2022/11/25 10:00:28;;;;;;;2.03;1.60;;;4.00;99.90;;;;;;5065841;28;20055;-30
2022/11/25 10:03:19;;;;;;;0.82;0.82;;;4.10;99.90;;;;;;5066460;28;20146;-30
2022/11/25 10:05:57;;;;;;;2.05;1.52;;;4.30;99.90;;;;;;5064351;28;20485;-30
2022/11/25 10:08:26;;;;;;;0.98;0.95;;;4.50;99.90;;;;;;5067630;28;20119;-35
2022/11/25 10:10:59;;;;;;;1.02;0.98;;;4.60;99.90;;;;;;5058570;28;20064;-31
2022/11/25 10:13:48;;;;;;;1.30;1.27;;;4.70;99.90;;;;;;5062227;28;20387;-30
2022/11/25 10:16:26;;;;;;;1.38;1.27;;;5.10;99.90;;;;;;5063596;28;20044;-31
2022/11/25 10:19:04;;;;;;;1.67;1.58;;;5.40;99.90;;;;;;5064914;28;20637;-31
2022/11/25 10:21:30;;;;;;;1.42;1.30;;;5.50;99.90;;;;;;5063821;28;20554;-30
2022/11/25 10:23:56;;;;;;;1.33;1.23;;;5.60;99.90;;;;;;5071010;28;20123;-31
2022/11/25 10:26:28;;;;;;;2.42;1.63;;;5.70;99.90;;;;;;5066792;28;20032;-31
2022/11/25 10:29:25;;;;;;;1.05;0.70;;;5.90;99.90;;;;;;5058409;28;20035;-33
2022/11/25 10:32:01;;;;;;;1.52;1.40;;;5.90;99.90;;;;;;5057274;28;20037;-30
2022/11/25 10:34:36;;;;;;;1.73;1.20;;;5.90;99.90;;;;;;5066338;28;20039;-31
2022/11/25 10:37:09;;;;;;;1.75;1.42;;;6.00;99.90;;;;;;5077904;28;20044;-33
2022/11/25 10:39:35;;;;;;;1.73;1.63;;;6.10;99.90;;;;;;5067199;28;20290;-30
2022/11/25 10:42:23;;;;;;;1.80;1.50;;;6.30;99.90;;;;;;5068637;28;20156;-32
2022/11/25 10:44:48;;;;;;;3.80;1.65;;;6.40;99.90;;;;;;5068090;28;20037;-30
2022/11/25 10:47:37;;;;;;;1.48;1.38;;;6.60;99.90;;;;;;5059903;28;20093;-31
2022/11/25 10:50:12;;;;;;;1.08;1.08;;;6.80;99.90;;;;;;5068022;28;20025;-32
2022/11/25 10:52:49;;;;;;;0.60;0.60;;;6.90;99.90;;;;;;5066813;28;20107;-31
2022/11/25 10:55:18;;;;;;;1.10;1.10;;;7.20;99.90;;;;;;5065708;28;20021;-30
2022/11/25 10:57:44;;;;;;;1.20;1.20;;;7.30;99.90;;;;;;5065509;28;20037;-31
2022/11/25 11:00:37;;;;;;;1.42;1.35;;;7.60;99.90;;;;;;5065678;28;20123;-32
2022/11/25 11:03:24;;;;;;;1.20;1.20;;;7.60;99.90;;;;;;5082824;28;20493;-30
2022/11/25 11:05:51;;;;;;;0.82;0.63;;;7.80;99.90;;;;;;5058354;28;20107;-30
2022/11/25 11:08:37;;;;;;;6.22;1.65;;;7.80;99.90;;;;;;5071387;28;20119;-30
2022/11/25 11:11:17;;;;;;;2.38;1.60;;;7.80;99.90;;;;;;5061206;28;20066;-30
2022/11/25 11:13:43;;;;;;;4.43;1.15;;;7.80;99.90;;;;;;5061195;28;20068;-30
2022/11/25 11:16:32;;;;;;;2.00;0.95;;;7.80;99.90;;;;;;5063948;28;20039;-30
2022/11/25 11:18:58;;;;;;;1.85;1.08;;;8.00;99.90;;;;;;5067222;28;20477;-30
2022/11/25 11:21:36;;;;;;;2.35;1.80;;;8.00;99.90;;;;;;5064963;28;20021;-30
2022/11/25 11:24:21;;;;;;;1.55;1.20;;;8.00;99.90;;;;;;5066358;28;20039;-30
2022/11/25 11:27:20;;;;;;;1.50;1.38;;;8.10;99.90;;;;;;5059170;28;20532;-30
2022/11/25 11:29:45;;;;;;;1.48;1.17;;;8.00;99.90;;;;;;5067222;28;20052;-31
2022/11/25 11:32:27;;;;;;;0.63;0.63;;;8.10;99.90;;;;;;5058631;28;20032;-31
2022/11/25 11:35:19;;;;;;;1.17;1.10;;;8.20;99.90;;;;;;5062165;28;20397;-30
2022/11/25 11:37:51;;;;;;;2.85;1.75;;;8.10;99.90;;;;;;5064401;28;20507;-30
2022/11/25 11:40:24;;;;;;;1.15;1.15;;;7.90;99.90;;;;;;5060973;28;20031;-31
2022/11/25 11:43:01;;;;;;;1.55;1.20;;;7.80;99.90;;;;;;5067907;28;20029;-33
2022/11/25 11:45:27;;;;;;;1.58;1.33;;;7.60;99.90;;;;;;5064238;28;20025;-30
2022/11/25 11:48:16;;;;;;;1.60;1.50;;;7.50;99.90;;;;;;5066256;28;20020;-30
2022/11/25 11:51:18;;;;;;;1.38;1.35;;;7.50;99.90;;;;;;5044448;28;20761;-30
2022/11/25 11:54:16;;;;;;;1.15;0.93;;;7.50;99.90;;;;;;5067366;28;20051;-30
2022/11/25 11:56:50;;;;;;;2.05;1.00;;;7.60;99.90;;;;;;5065404;28;20545;-31
2022/11/25 11:59:51;;;;;;;0.77;0.77;;;7.60;99.90;;;;;;5091765;28;20794;-31
2022/11/25 12:02:26;;;;;;;2.95;1.40;;;7.60;99.90;;;;;;5067012;28;20588;-30
2022/11/25 12:05:10;;;;;;;2.75;1.35;;;7.60;99.90;;;;;;5094680;28;20090;-30
2022/11/25 12:07:49;;;;;;;2.88;1.90;;;7.60;99.90;;;;;;5069620;28;20120;-30
2022/11/25 12:10:23;;;;;;;2.10;1.10;;;7.70;99.90;;;;;;5065527;28;20524;-31
2022/11/25 12:13:26;;;;;;;4.50;1.65;;;7.80;99.90;;;;;;5066666;28;20493;-32
2022/11/25 12:16:23;;;;;;;3.45;1.42;;;7.80;99.90;;;;;;5069042;28;20125;-31
2022/11/25 12:19:12;;;;;;;1.20;1.13;;;8.00;99.90;;;;;;5069891;28;20039;-30
2022/11/25 12:21:53;;;;;;;2.10;1.88;;;8.10;99.90;;;;;;5067812;28;20099;-30
2022/11/25 12:25:09;;;;;;;1.20;1.02;;;8.10;99.90;;;;;;5071298;28;20032;-30
2022/11/25 12:28:02;;;;;;;2.10;1.42;;;8.20;99.90;;;;;;5021769;28;20088;-34
2022/11/25 12:30:55;;;;;;;1.10;1.05;;;8.30;99.90;;;;;;5024907;28;20452;-31
2022/11/25 12:33:25;;;;;;;1.20;1.17;;;8.40;99.90;;;;;;5061164;28;20441;-30
2022/11/25 12:36:08;;;;;;;3.17;1.25;;;8.60;99.90;;;;;;5067473;28;20472;-30
2022/11/25 12:38:36;;;;;;;0.77;0.77;;;8.60;99.90;;;;;;5070351;28;20436;-30
2022/11/25 12:41:36;;;;;;;1.45;1.35;;;8.70;99.90;;;;;;5070538;28;20104;-30
2022/11/25 12:44:17;;;;;;;2.63;1.48;;;8.80;99.90;;;;;;5060562;28;20087;-31
2022/11/25 12:46:52;;;;;;;2.00;0.90;;;8.80;99.90;;;;;;5069037;28;20032;-31
2022/11/25 12:49:20;;;;;;;2.50;0.95;;;8.70;99.90;;;;;;5064464;28;20070;-31
2022/11/25 12:52:04;;;;;;;2.58;1.40;;;8.70;99.90;;;;;;5067735;28;20039;-30
2022/11/25 12:54:46;;;;;;;1.70;1.30;;;8.70;99.90;;;;;;5063566;28;20067;-30
2022/11/25 12:57:31;;;;;;;1.80;0.95;;;8.70;99.90;;;;;;5064917;28;20020;-30
2022/11/25 12:59:59;;;;;;;2.90;0.95;;;8.70;99.90;;;;;;5061751;28;20528;-29
2022/11/25 13:02:28;;;;;;;2.78;1.70;;;8.70;99.90;;;;;;5066010;28;20025;-30
2022/11/25 13:05:02;;;;;;;;;;;8.70;99.90;;;;;;5068143;28;20052;-30
2022/11/25 13:07:44;;;;;;;1.52;1.42;;;8.70;99.90;;;;;;5063844;28;19909;-30
2022/11/25 13:10:42;;;;;;;3.65;1.60;;;8.70;99.90;;;;;;5063416;28;20063;-29
2022/11/25 13:13:28;;;;;;;2.25;1.50;;;8.60;99.90;;;;;;5066318;28;20051;-31
2022/11/25 13:15:56;;;;;;;2.38;2.17;;;8.60;99.90;;;;;;5064386;28;20684;-30
2022/11/25 13:18:23;;;;;;;5.72;1.10;;;8.60;99.90;;;;;;5069117;28;20375;-30
2022/11/25 13:20:51;;;;;;;2.83;1.67;;;8.50;99.90;;;;;;5065119;28;20059;-31
2022/11/25 13:23:17;;;;;;;1.52;1.08;;;8.50;99.90;;;;;;5068593;28;20484;-31
2022/11/25 13:25:47;;;;;;;2.10;1.25;;;8.50;99.90;;;;;;5075513;28;20017;-30
2022/11/25 13:28:42;;;;;;;4.00;2.03;;;8.50;99.90;;;;;;5066201;28;20064;-30